Time;durP1;ratioP1;P1;durP2;ratioP2;P2;SDS_P1;SDS_P2;PMS_P1;PMS_P2;Temp;Humidity;BMP_temperature;BMP_pressure;BME280_temperature;BME280_humidity;BME280_pressure;Samples;Min_cycle;Max_cycle;Signal;HPM_P1;HPM_P2
2020/12/30 00:04:25;;;;;;;3.27;1.10;;;;;;;9.24;95.55;94287.13;10494873;28;20032;-76
2020/12/30 00:09:26;;;;;;;6.30;1.37;;;;;;;9.01;98.25;94304.63;10493473;28;20358;-75
2020/12/30 00:14:26;;;;;;;6.55;3.47;;;;;;;9.11;99.64;94289.59;10488421;28;20025;-74
2020/12/30 00:19:27;;;;;;;4.43;1.67;;;;;;;8.93;99.63;94309.78;10487619;28;20040;-74
2020/12/30 00:24:27;;;;;;;5.57;1.90;;;;;;;8.76;100.00;94326.97;10494078;28;20063;-74
2020/12/30 00:29:27;;;;;;;7.50;3.13;;;;;;;8.67;100.00;94307.97;10529667;28;20155;-74
2020/12/30 00:34:28;;;;;;;8.57;3.27;;;;;;;8.16;100.00;94326.72;10478248;28;20020;-74
2020/12/30 00:39:28;;;;;;;9.88;5.00;;;;;;;8.06;100.00;94324.84;10469022;28;20028;-74
2020/12/30 00:44:29;;;;;;;10.07;5.40;;;;;;;7.90;100.00;94318.69;10486773;28;20493;-74
2020/12/30 00:49:29;;;;;;;11.93;5.43;;;;;;;7.44;100.00;94319.41;10486324;28;20020;-73
2020/12/30 00:54:29;;;;;;;9.40;4.97;;;;;;;7.14;100.00;94312.91;10486416;28;20829;-74
2020/12/30 00:59:30;;;;;;;9.97;5.63;;;;;;;7.13;100.00;94318.50;10486859;28;20028;-74
2020/12/30 01:04:30;;;;;;;13.43;5.67;;;;;;;7.03;100.00;94316.59;10486780;28;20032;-74
2020/12/30 01:09:30;;;;;;;15.73;5.40;;;;;;;6.84;100.00;94309.03;10487322;28;20017;-74
2020/12/30 01:14:32;;;;;;;10.07;5.60;;;;;;;6.88;100.00;94316.53;10486500;28;20258;-75
2020/12/30 01:19:32;;;;;;;7.63;4.95;;;;;;;6.71;100.00;94292.69;10489939;28;20877;-75
2020/12/30 01:24:32;;;;;;;11.97;4.97;;;;;;;6.60;100.00;94311.31;10495107;28;20085;-74
2020/12/30 01:29:33;;;;;;;10.07;5.70;;;;;;;6.51;100.00;94299.50;10476586;28;20025;-74
2020/12/30 01:34:33;;;;;;;15.50;5.67;;;;;;;6.45;100.00;94292.56;10476941;28;20332;-74
2020/12/30 01:39:33;;;;;;;12.67;5.67;;;;;;;6.42;100.00;94277.84;10494592;28;20063;-74
2020/12/30 01:44:34;;;;;;;10.37;5.17;;;;;;;6.55;100.00;94284.59;10494485;28;20029;-75
2020/12/30 01:49:34;;;;;;;14.47;5.53;;;;;;;6.54;100.00;94287.53;10494642;28;20032;-75
2020/12/30 01:54:35;;;;;;;7.97;4.45;;;;;;;6.54;100.00;94280.31;10494434;28;20170;-75
2020/12/30 01:59:35;;;;;;;8.55;4.85;;;;;;;6.55;100.00;94263.22;10493663;28;20025;-75
2020/12/30 02:04:56;;;;;;;10.50;5.07;;;;;;;6.59;100.00;94269.66;10493405;28;20025;-75
2020/12/30 02:09:58;;;;;;;11.70;6.32;;;;;;;6.36;100.00;94262.84;10493440;28;20638;-75
2020/12/30 02:14:58;;;;;;;12.00;5.68;;;;;;;6.32;100.00;94257.25;10493226;28;20025;-75
2020/12/30 02:19:59;;;;;;;13.30;6.47;;;;;;;5.86;100.00;94253.41;10492555;28;20067;-74
2020/12/30 02:24:59;;;;;;;13.00;6.63;;;;;;;5.83;100.00;94249.41;10493438;28;20045;-75
2020/12/30 02:29:59;;;;;;;11.03;5.07;;;;;;;6.31;100.00;94252.97;10492247;28;20540;-75
2020/12/30 02:35:00;;;;;;;5.57;0.80;;;;;;;8.48;89.58;94245.34;10492327;28;20277;-75
2020/12/30 02:40:00;;;;;;;0.53;0.30;;;;;;;10.07;61.02;94233.75;10492775;28;20016;-74
2020/12/30 02:45:06;;;;;;;1.87;0.43;;;;;;;10.93;55.53;94213.53;10492395;28;20785;-75
2020/12/30 02:50:06;;;;;;;6.03;3.30;;;;;;;10.72;68.04;94227.19;10491863;28;20634;-75
2020/12/30 02:55:06;;;;;;;8.93;4.85;;;;;;;9.90;84.96;94231.44;10474243;28;20020;-75
2020/12/30 03:00:07;;;;;;;10.87;5.50;;;;;;;8.61;100.00;94246.63;10492139;28;20024;-74
2020/12/30 03:05:07;;;;;;;9.47;5.50;;;;;;;7.26;100.00;94245.88;10491100;28;20365;-74
2020/12/30 03:10:07;;;;;;;10.17;5.47;;;;;;;6.98;100.00;94242.59;10491596;28;20043;-74
2020/12/30 03:15:08;;;;;;;13.70;6.20;;;;;;;7.03;100.00;94243.66;10490908;28;20751;-74
2020/12/30 03:20:08;;;;;;;9.17;5.60;;;;;;;7.08;100.00;94233.00;10490556;28;20075;-74
2020/12/30 03:25:09;;;;;;;14.33;6.00;;;;;;;7.13;100.00;94233.00;10490605;28;20430;-74
2020/12/30 03:30:09;;;;;;;9.32;5.82;;;;;;;7.05;100.00;94244.19;10490334;28;20016;-74
2020/12/30 03:35:09;;;;;;;10.05;5.80;;;;;;;6.99;100.00;94240.69;10471977;28;20023;-74
2020/12/30 03:40:10;;;;;;;8.90;6.43;;;;;;;6.96;100.00;94228.69;10489714;28;20028;-74
2020/12/30 03:45:11;;;;;;;14.43;6.20;;;;;;;6.76;100.00;94223.28;10489996;28;20028;-75
2020/12/30 03:50:11;;;;;;;10.80;6.57;;;;;;;6.59;100.00;94221.59;10489746;28;20024;-75
2020/12/30 03:55:12;;;;;;;16.87;7.83;;;;;;;6.36;100.00;94214.81;10489464;28;20356;-75
2020/12/30 04:00:12;;;;;;;13.90;7.53;;;;;;;6.28;100.00;94210.78;10489359;28;20419;-75
2020/12/30 04:05:12;;;;;;;12.70;7.03;;;;;;;6.22;100.00;94222.47;10489329;28;20290;-74
2020/12/30 04:10:13;;;;;;;10.17;5.53;;;;;;;6.22;100.00;94208.34;10488604;28;20028;-74
2020/12/30 04:15:13;;;;;;;12.63;6.22;;;;;;;6.06;100.00;94223.47;10489056;28;20287;-75
2020/12/30 04:20:13;;;;;;;8.57;6.00;;;;;;;5.94;100.00;94232.41;10488819;28;20048;-75
2020/12/30 04:25:14;;;;;;;11.03;4.43;;;;;;;6.08;100.00;94214.13;10488505;28;20028;-75
2020/12/30 04:30:14;;;;;;;15.47;4.97;;;;;;;6.14;100.00;94221.13;10488611;28;20111;-75
2020/12/30 04:35:15;;;;;;;9.90;4.80;;;;;;;6.23;100.00;94194.75;10488697;28;20262;-74
2020/12/30 04:40:15;;;;;;;11.70;4.17;;;;;;;6.25;100.00;94213.97;10487937;28;20040;-75
2020/12/30 04:45:17;;;;;;;9.67;5.43;;;;;;;6.32;100.00;94225.22;10488226;28;20024;-76
2020/12/30 04:50:17;;;;;;;7.85;4.43;;;;;;;6.26;100.00;94218.22;10488598;28;20032;-74
2020/12/30 04:55:23;;;;;;;10.17;4.87;;;;;;;6.28;100.00;94215.28;10491836;28;20020;-75
2020/12/30 05:00:25;;;;;;;9.48;4.88;;;;;;;6.11;100.00;94248.31;10496431;28;20373;-75
2020/12/30 05:05:25;;;;;;;8.90;4.63;;;;;;;6.27;100.00;94219.84;10495982;28;20029;-75
2020/12/30 05:10:27;;;;;;;8.82;5.35;;;;;;;6.26;100.00;94222.78;10495827;28;20036;-75
2020/12/30 05:15:27;;;;;;;10.65;4.50;;;;;;;6.18;100.00;94239.25;10496107;28;20053;-75
2020/12/30 05:20:35;;;;;;;20.13;3.73;;;;;;;6.42;100.00;94218.31;10477830;28;20048;-75
2020/12/30 05:25:37;;;;;;;9.82;3.58;;;;;;;6.55;100.00;94204.50;10534955;28;20028;-75
2020/12/30 05:30:39;;;;;;;7.97;4.18;;;;;;;6.61;100.00;94208.78;10537328;28;20143;-75
2020/12/30 05:35:39;;;;;;;13.18;3.80;;;;;;;6.75;100.00;94210.97;10536827;28;20033;-74
2020/12/30 05:40:40;;;;;;;16.07;3.93;;;;;;;6.76;100.00;94183.22;10536913;28;20025;-74
2020/12/30 05:45:47;;;;;;;17.50;6.97;;;;;;;7.08;100.00;94177.69;10532504;28;20131;-74
2020/12/30 05:50:52;;;;;;;3.03;1.48;;;;;;;8.42;93.08;94177.56;10494457;28;20326;-74
2020/12/30 05:56:09;;;;;;;5.03;0.63;;;;;;;9.91;71.08;94165.16;10493948;28;20058;-75
2020/12/30 06:01:27;;;;;;;6.95;1.75;;;;;;;10.67;62.84;94168.13;10492851;28;20054;-75
2020/12/30 06:06:28;;;;;;;7.03;4.03;;;;;;;10.08;80.22;94211.16;10491798;28;20024;-75
2020/12/30 06:11:34;;;;;;;12.13;4.88;;;;;;;9.55;90.54;94203.00;10493411;28;20490;-75
2020/12/30 06:16:38;;;;;;;7.30;3.50;;;;;;;9.10;88.11;94180.75;10492424;28;20032;-75
2020/12/30 06:21:46;;;;;;;6.88;3.05;;;;;;;8.69;96.40;94196.00;10512497;28;20052;-75
2020/12/30 06:26:46;;;;;;;9.35;4.68;;;;;;;8.43;100.00;94210.50;10533654;28;20074;-75
2020/12/30 06:31:49;;;;;;;15.02;5.80;;;;;;;8.15;100.00;94212.69;10533610;28;20024;-75
2020/12/30 06:36:49;;;;;;;11.98;5.20;;;;;;;7.96;100.00;94236.56;10533927;28;20024;-75
2020/12/30 06:42:04;;;;;;;14.17;6.03;;;;;;;7.76;100.00;94226.66;10521477;28;20051;-75
2020/12/30 06:47:06;;;;;;;11.30;3.58;;;;;;;7.61;100.00;94220.25;10528334;28;20031;-75
2020/12/30 06:52:25;;;;;;;14.93;5.10;;;;;;;7.58;100.00;94252.88;10500350;28;20039;-75
2020/12/30 06:57:39;;;;;;;18.95;4.05;;;;;;;7.50;100.00;94232.00;10524128;28;20407;-75
2020/12/30 07:02:39;;;;;;;14.20;4.80;;;;;;;7.68;100.00;94257.41;10529785;28;20024;-80
2020/12/30 07:07:41;;;;;;;9.90;4.50;;;;;;;7.43;100.00;94287.59;10491931;28;20033;-75
2020/12/30 07:12:42;;;;;;;22.90;7.68;;;;;;;7.34;100.00;94281.97;10572640;28;20273;-74
2020/12/30 07:17:42;;;;;;;16.10;6.53;;;;;;;7.30;100.00;94287.03;10570007;28;20047;-75
2020/12/30 07:22:43;;;;;;;18.20;7.80;;;;;;;7.08;100.00;94303.25;10490563;28;20032;-75
2020/12/30 07:27:43;;;;;;;15.57;7.60;;;;;;;7.14;100.00;94280.81;10510692;28;20118;-76
2020/12/30 07:32:46;;;;;;;17.35;6.00;;;;;;;7.39;100.00;94286.53;10574136;28;20058;-75
2020/12/30 07:37:50;;;;;;;14.05;6.25;;;;;;;7.26;100.00;94301.19;10565024;28;20061;-75
2020/12/30 07:42:57;;;;;;;15.50;6.40;;;;;;;7.48;100.00;94288.41;10516666;28;20048;-74
2020/12/30 07:48:07;;;;;;;19.95;6.03;;;;;;;7.64;100.00;94273.19;10510186;28;20107;-74
2020/12/30 07:53:16;;;;;;;12.40;3.08;;;;;;;8.01;100.00;94282.06;10507672;28;20778;-75
2020/12/30 07:58:17;;;;;;;14.77;5.50;;;;;;;8.14;100.00;94284.19;10529850;28;20470;-75
2020/12/30 08:03:20;;;;;;;12.32;4.57;;;;;;;8.35;100.00;94282.28;10529858;28;20031;-75
2020/12/30 08:08:21;;;;;;;10.02;3.70;;;;;;;9.00;97.23;94278.94;10530746;28;20023;-75
2020/12/30 08:13:21;;;;;;;4.85;1.17;;;;;;;9.78;79.49;94278.50;10530713;28;20086;-75
2020/12/30 08:18:22;;;;;;;17.70;4.70;;;;;;;10.33;80.69;94271.09;10529468;28;20040;-75
2020/12/30 08:23:22;;;;;;;11.17;3.53;;;;;;;10.38;80.82;94291.75;10529473;28;20028;-75
2020/12/30 08:28:23;;;;;;;22.67;5.57;;;;;;;10.02;94.13;94278.59;10529197;28;20108;-75
2020/12/30 08:33:25;;;;;;;15.32;6.05;;;;;;;10.05;90.79;94246.63;10529503;28;20282;-75
2020/12/30 08:38:28;;;;;;;10.27;2.80;;;;;;;10.34;79.41;94263.81;10529589;28;20469;-75
2020/12/30 08:43:43;;;;;;;14.05;5.35;;;;;;;10.33;90.15;94270.31;10529246;28;20035;-75
2020/12/30 08:48:50;;;;;;;26.83;6.80;;;;;;;10.54;91.33;94252.91;10495752;28;20400;-75
2020/12/30 08:53:53;;;;;;;20.77;6.10;;;;;;;10.87;90.95;94253.13;10487495;28;20028;-75
2020/12/30 08:58:58;;;;;;;14.15;4.72;;;;;;;11.09;82.33;94241.81;10469276;28;20101;-75
2020/12/30 09:04:09;;;;;;;12.60;4.97;;;;;;;11.20;80.10;94247.06;10487218;28;20035;-74
2020/12/30 09:09:12;;;;;;;9.57;3.00;;;;;;;11.16;78.50;94224.53;10486592;28;20028;-75
2020/12/30 09:14:18;;;;;;;8.52;3.40;;;;;;;11.24;78.07;94221.19;10486830;28;20025;-75
2020/12/30 09:19:20;;;;;;;10.32;2.53;;;;;;;11.47;78.70;94208.78;10486712;28;20593;-75
2020/12/30 09:24:23;;;;;;;5.30;1.63;;;;;;;11.72;73.65;94210.28;10486443;28;20032;-75
2020/12/30 09:29:23;;;;;;;5.93;1.98;;;;;;;11.98;72.43;94209.09;10486416;28;20028;-76
2020/12/30 09:34:26;;;;;;;7.33;1.93;;;;;;;12.52;67.03;94207.59;10486247;28;20020;-75
2020/12/30 09:39:28;;;;;;;4.35;1.70;;;;;;;12.82;62.60;94202.72;10488308;28;20792;-75
2020/12/30 09:44:29;;;;;;;5.32;1.65;;;;;;;12.95;61.23;94195.75;10494965;28;20036;-76
2020/12/30 09:49:29;;;;;;;9.25;1.50;;;;;;;13.15;55.64;94189.91;10494044;28;20032;-74
2020/12/30 09:54:30;;;;;;;12.70;2.13;;;;;;;13.54;50.22;94168.06;10493930;28;20824;-75
2020/12/30 09:59:30;;;;;;;9.27;1.53;;;;;;;13.96;48.75;94184.88;10492575;28;20402;-75
2020/12/30 10:04:30;;;;;;;5.03;1.83;;;;;;;14.63;46.78;94170.44;10493236;28;20063;-75
2020/12/30 10:09:31;;;;;;;4.73;0.57;;;;;;;14.79;46.29;94173.56;10493006;28;20483;-75
2020/12/30 10:14:31;;;;;;;12.87;2.90;;;;;;;15.17;49.56;94162.16;10492419;28;20017;-74
2020/12/30 10:19:31;;;;;;;16.10;2.67;;;;;;;15.77;47.44;94169.84;10473587;28;20101;-75
2020/12/30 10:24:32;;;;;;;6.10;0.70;;;;;;;15.78;43.49;94147.88;10492261;28;20040;-75
2020/12/30 10:29:39;;;;;;;4.85;0.75;;;;;;;15.35;43.82;94138.63;10492346;28;20026;-77
2020/12/30 10:34:39;;;;;;;7.35;1.48;;;;;;;14.75;43.96;94139.31;10491796;28;20078;-76
2020/12/30 10:39:39;;;;;;;6.03;0.88;;;;;;;14.48;44.41;94139.22;10473433;28;20024;-76
2020/12/30 10:44:40;;;;;;;4.20;0.80;;;;;;;14.58;44.60;94130.03;10491916;28;20025;-75
2020/12/30 10:49:40;;;;;;;1.77;0.70;;;;;;;16.99;41.12;94117.97;10495461;28;20063;-75
2020/12/30 10:54:43;;;;;;;6.10;0.97;;;;;;;19.58;37.79;94115.00;10520631;28;20407;-76
2020/12/30 10:59:44;;;;;;;6.32;1.17;;;;;;;22.20;33.81;94102.44;10490467;28;20060;-76
2020/12/30 11:04:44;;;;;;;6.65;1.33;;;;;;;22.93;32.75;94107.25;10514785;28;20119;-74
2020/12/30 11:09:45;;;;;;;6.53;1.20;;;;;;;24.97;29.95;94090.84;10490688;28;20064;-75
2020/12/30 11:14:45;;;;;;;2.83;0.93;;;;;;;26.52;27.98;94081.34;10527279;28;20027;-75
2020/12/30 11:19:45;;;;;;;5.20;0.93;;;;;;;26.93;26.75;94080.22;10532019;28;20707;-75
2020/12/30 11:24:46;;;;;;;5.77;1.37;;;;;;;26.31;26.61;94079.34;10489979;28;20029;-75
2020/12/30 11:29:46;;;;;;;3.73;0.93;;;;;;;26.44;26.45;94074.25;10496102;28;20117;-74
2020/12/30 11:34:49;;;;;;;1.53;0.63;;;;;;;27.34;24.94;94070.72;10503262;28;20052;-75
2020/12/30 11:39:49;;;;;;;4.20;0.70;;;;;;;27.67;24.51;94069.50;10503143;28;20032;-75
2020/12/30 11:44:51;;;;;;;6.70;1.05;;;;;;;27.23;24.99;94059.72;10489056;28;20570;-76
2020/12/30 11:49:52;;;;;;;7.78;0.95;;;;;;;27.69;24.39;94045.00;10488606;28;20037;-75
2020/12/30 11:54:53;;;;;;;2.70;0.70;;;;;;;27.85;24.18;94052.06;10488907;28;20031;-76
2020/12/30 11:59:53;;;;;;;3.10;0.90;;;;;;;28.32;24.39;94063.69;10490420;28;20032;-76
2020/12/30 12:04:54;;;;;;;7.55;0.95;;;;;;;25.91;26.22;94068.22;10498890;28;20043;-75
2020/12/30 12:09:57;;;;;;;5.43;1.20;;;;;;;22.65;29.63;94062.59;10489322;28;20021;-77
2020/12/30 12:14:58;;;;;;;5.07;0.90;;;;;;;19.94;33.25;94068.84;10528039;28;20387;-76
2020/12/30 12:19:58;;;;;;;5.27;1.00;;;;;;;18.68;35.68;94065.19;10521588;28;20040;-76
2020/12/30 12:24:59;;;;;;;5.43;1.33;;;;;;;18.20;37.32;94087.38;10468483;28;20025;-77
2020/12/30 12:29:59;;;;;;;8.43;2.80;;;;;;;17.34;38.29;94084.34;10469154;28;20031;-76
2020/12/30 12:34:59;;;;;;;8.23;1.17;;;;;;;17.01;38.41;94076.91;10488847;28;20456;-76
2020/12/30 12:40:00;;;;;;;7.97;1.20;;;;;;;16.87;39.98;94088.81;10511091;28;20020;-76
2020/12/30 12:45:00;;;;;;;7.53;1.17;;;;;;;16.85;39.08;94080.19;10527814;28;20274;-76
2020/12/30 12:50:01;;;;;;;11.33;1.57;;;;;;;16.82;39.76;94085.47;10522470;28;20270;-76
2020/12/30 12:55:01;;;;;;;4.43;1.17;;;;;;;16.55;39.99;94074.78;10527289;28;20270;-77
2020/12/30 13:00:03;;;;;;;7.13;1.07;;;;;;;16.16;41.86;94082.13;10527863;28;20023;-76
2020/12/30 13:05:03;;;;;;;9.93;1.35;;;;;;;15.88;42.40;94087.94;10495422;28;20079;-76
2020/12/30 13:10:03;;;;;;;7.40;0.88;;;;;;;15.66;43.01;94086.19;10486230;28;20104;-76
2020/12/30 13:15:04;;;;;;;7.83;1.47;;;;;;;15.87;44.35;94083.63;10488359;28;20025;-76
2020/12/30 13:20:05;;;;;;;3.88;1.50;;;;;;;15.70;42.87;94078.22;10493764;28;20147;-76
2020/12/30 13:25:05;;;;;;;10.03;3.10;;;;;;;15.92;43.17;94079.97;10476388;28;20066;-76
2020/12/30 13:30:05;;;;;;;8.70;1.50;;;;;;;16.08;41.34;94076.72;10494805;28;20521;-76
2020/12/30 13:35:06;;;;;;;9.30;1.50;;;;;;;15.48;42.86;94080.00;10475930;28;20328;-77
2020/12/30 13:40:06;;;;;;;6.73;1.40;;;;;;;15.01;44.47;94087.97;10494129;28;20776;-76
2020/12/30 13:45:08;;;;;;;9.57;1.70;;;;;;;14.96;45.28;94077.28;10493660;28;20399;-77
2020/12/30 13:50:08;;;;;;;8.90;1.52;;;;;;;14.85;43.56;94080.31;10493750;28;20038;-77
2020/12/30 13:55:09;;;;;;;7.73;1.30;;;;;;;14.68;44.72;94091.88;10493436;28;20029;-77
2020/12/30 14:00:10;;;;;;;16.92;1.67;;;;;;;14.59;44.58;94098.34;10493651;28;20024;-76
2020/12/30 14:05:10;;;;;;;7.55;1.38;;;;;;;14.53;44.56;94095.78;10492795;28;20043;-77
2020/12/30 14:10:11;;;;;;;11.73;2.72;;;;;;;14.44;43.44;94091.47;10492718;28;20028;-77
2020/12/30 14:15:11;;;;;;;8.97;1.47;;;;;;;14.21;42.88;94090.75;10492663;28;20031;-77
2020/12/30 14:20:12;;;;;;;6.50;1.20;;;;;;;14.02;42.99;94095.28;10492352;28;20055;-76
2020/12/30 14:25:12;;;;;;;7.25;1.02;;;;;;;13.83;43.55;94081.19;10491746;28;20028;-76
2020/12/30 14:30:12;;;;;;;12.43;1.33;;;;;;;13.83;43.34;94100.09;10492437;28;20029;-76
2020/12/30 14:35:13;;;;;;;9.98;2.00;;;;;;;13.81;43.19;94086.09;10528648;28;20278;-75
2020/12/30 14:40:13;;;;;;;13.50;2.33;;;;;;;13.68;43.47;94101.28;10533259;28;20425;-76
2020/12/30 14:45:14;;;;;;;11.27;2.08;;;;;;;13.57;44.04;94097.25;10499412;28;20286;-76
2020/12/30 14:50:22;;;;;;;11.17;1.53;;;;;;;13.54;44.42;94111.34;10526213;28;20020;-78
2020/12/30 14:55:22;;;;;;;6.38;1.85;;;;;;;13.55;43.88;94121.03;10533062;28;20404;-77
2020/12/30 15:00:23;;;;;;;11.47;2.30;;;;;;;13.50;44.74;94122.75;10527029;28;20571;-77
2020/12/30 15:05:23;;;;;;;7.50;2.43;;;;;;;13.49;43.92;94109.56;10529743;28;20354;-75
2020/12/30 15:10:23;;;;;;;16.23;2.57;;;;;;;13.37;43.81;94120.91;10531978;28;20035;-75
2020/12/30 15:15:24;;;;;;;12.40;1.70;;;;;;;13.29;43.75;94103.50;10531909;28;20024;-75
2020/12/30 15:20:24;;;;;;;13.60;3.13;;;;;;;13.28;43.63;94096.53;10518319;28;20056;-75
2020/12/30 15:25:25;;;;;;;12.97;2.33;;;;;;;13.28;43.39;94104.63;10500981;28;20930;-75
2020/12/30 15:30:25;;;;;;;9.95;1.88;;;;;;;13.20;43.61;94108.06;10521953;28;20479;-75
2020/12/30 15:35:26;;;;;;;11.07;2.10;;;;;;;13.26;43.36;94109.53;10528952;28;20023;-75
2020/12/30 15:40:26;;;;;;;17.73;2.80;;;;;;;13.23;43.49;94112.03;10511496;28;20035;-76
2020/12/30 15:45:27;;;;;;;13.17;2.90;;;;;;;13.22;43.34;94113.16;10531023;28;20035;-76
2020/12/30 15:50:27;;;;;;;14.07;2.30;;;;;;;13.17;43.70;94103.25;10530783;28;21132;-76
2020/12/30 15:55:27;;;;;;;7.87;1.57;;;;;;;13.12;43.77;94108.78;10530630;28;20043;-76
2020/12/30 16:00:28;;;;;;;13.15;2.08;;;;;;;13.15;43.96;94110.88;10530622;28;20582;-76
2020/12/30 16:05:28;;;;;;;13.93;2.30;;;;;;;13.06;44.18;94096.50;10530599;28;20067;-76
2020/12/30 16:10:29;;;;;;;8.93;2.08;;;;;;;13.08;44.25;94121.28;10530240;28;20035;-76
2020/12/30 16:15:29;;;;;;;17.83;2.87;;;;;;;13.05;44.51;94101.09;10530111;28;20028;-76
2020/12/30 16:20:29;;;;;;;19.63;2.40;;;;;;;13.06;44.34;94104.59;10530405;28;20052;-76
2020/12/30 16:25:30;;;;;;;19.30;2.17;;;;;;;13.06;44.50;94100.00;10530011;28;20024;-76
2020/12/30 16:30:30;;;;;;;21.50;2.23;;;;;;;13.04;44.81;94131.88;10511489;28;20024;-76
2020/12/30 16:35:31;;;;;;;15.43;2.90;;;;;;;12.99;45.11;94126.56;10528661;28;20273;-76
2020/12/30 16:40:31;;;;;;;17.90;2.13;;;;;;;12.93;45.15;94087.34;10487966;28;20020;-76
2020/12/30 16:45:31;;;;;;;5.47;1.53;;;;;;;12.92;45.50;94118.91;10487053;28;20189;-76
2020/12/30 16:50:32;;;;;;;20.80;4.07;;;;;;;12.91;45.51;94114.63;10486569;28;20263;-76
2020/12/30 16:55:32;;;;;;;21.00;2.33;;;;;;;12.93;45.66;94123.19;10507500;28;20273;-75
2020/12/30 17:00:33;;;;;;;11.20;1.90;;;;;;;12.81;46.20;94131.81;10490269;28;20033;-76
2020/12/30 17:05:33;;;;;;;17.83;3.03;;;;;;;12.79;46.15;94104.34;10506397;28;20027;-76
2020/12/30 17:10:33;;;;;;;18.13;3.80;;;;;;;12.72;46.71;94106.66;10500489;28;20279;-75
2020/12/30 17:15:34;;;;;;;13.47;2.37;;;;;;;12.71;46.32;94105.06;10516598;28;20282;-76
2020/12/30 17:20:35;;;;;;;12.30;1.73;;;;;;;12.73;46.33;94119.03;10528812;28;20300;-76
2020/12/30 17:25:35;;;;;;;22.33;2.30;;;;;;;12.67;46.60;94109.47;10570070;28;20436;-76
2020/12/30 17:30:35;;;;;;;14.40;2.07;;;;;;;12.70;47.02;94113.44;10496420;28;20032;-76
2020/12/30 17:35:37;;;;;;;17.30;3.63;;;;;;;12.70;46.59;94100.78;10490166;28;20020;-76
2020/12/30 17:40:37;;;;;;;16.80;4.57;;;;;;;12.74;46.57;94107.16;10527942;28;20103;-77
2020/12/30 17:45:38;;;;;;;14.80;1.67;;;;;;;12.76;47.14;94118.44;10527620;28;20032;-76
2020/12/30 17:50:38;;;;;;;15.60;3.10;;;;;;;12.74;47.52;94133.31;10569955;28;20124;-77
2020/12/30 17:55:38;;;;;;;17.80;2.73;;;;;;;12.77;47.39;94140.81;10570155;28;20681;-77
2020/12/30 18:00:39;;;;;;;16.30;3.53;;;;;;;12.72;48.15;94097.78;10571216;28;20284;-77
2020/12/30 18:05:42;;;;;;;11.53;2.33;;;;;;;12.72;48.00;94098.56;10576699;28;20504;-78
2020/12/30 18:10:42;;;;;;;19.02;2.45;;;;;;;12.64;48.29;94115.44;10577572;28;20269;-77
2020/12/30 18:15:42;;;;;;;19.37;2.30;;;;;;;12.54;48.06;94092.19;10577183;28;20026;-76
2020/12/30 18:20:43;;;;;;;14.98;2.42;;;;;;;12.55;48.24;94103.78;10576026;28;20815;-76
2020/12/30 18:25:43;;;;;;;23.00;4.30;;;;;;;12.34;49.79;94124.97;10558943;28;20019;-76
2020/12/30 18:30:43;;;;;;;17.40;3.50;;;;;;;12.09;50.38;94092.81;10576642;28;20032;-77
2020/12/30 18:35:44;;;;;;;12.87;3.60;;;;;;;12.02;51.10;94087.00;10576396;28;20030;-76
2020/12/30 18:40:44;;;;;;;19.03;4.10;;;;;;;12.12;51.56;94100.28;10575764;28;20022;-75
2020/12/30 18:45:45;;;;;;;21.00;4.63;;;;;;;11.80;53.87;94083.09;10558106;28;20277;-75
2020/12/30 18:50:45;;;;;;;20.70;3.97;;;;;;;11.76;53.35;94098.22;10591327;27;20023;-76
2020/12/30 18:55:45;;;;;;;22.30;4.10;;;;;;;11.58;55.61;94099.88;10591352;27;20049;-76
2020/12/30 19:00:46;;;;;;;14.90;4.43;;;;;;;11.39;57.66;94101.81;10531025;28;20145;-76
2020/12/30 19:05:47;;;;;;;14.50;3.80;;;;;;;11.10;60.61;94117.00;10521705;28;20798;-76
2020/12/30 19:10:47;;;;;;;18.90;2.85;;;;;;;11.24;57.30;94114.38;10492120;28;20392;-76
2020/12/30 19:15:47;;;;;;;19.95;2.65;;;;;;;11.31;56.03;94097.88;10511522;28;20025;-76
2020/12/30 19:20:51;;;;;;;17.60;3.73;;;;;;;11.32;57.81;94126.38;10496027;28;20181;-74
2020/12/30 19:25:52;;;;;;;19.42;3.55;;;;;;;10.89;62.84;94119.19;10529273;28;20282;-74
2020/12/30 19:30:52;;;;;;;19.50;4.20;;;;;;;11.09;59.10;94093.91;10504424;28;20411;-74
2020/12/30 19:35:53;;;;;;;15.88;3.40;;;;;;;10.83;63.49;94103.41;10525239;28;20127;-74
2020/12/30 19:40:54;;;;;;;17.13;3.67;;;;;;;10.54;65.96;94118.56;10524129;28;20042;-73
2020/12/30 19:45:54;;;;;;;29.08;4.68;;;;;;;10.57;66.10;94118.00;10528532;28;20024;-73
2020/12/30 19:50:54;;;;;;;21.57;3.80;;;;;;;10.47;67.74;94128.09;10528453;28;20523;-73
2020/12/30 19:55:58;;;;;;;21.30;3.92;;;;;;;10.42;68.44;94110.94;10527827;28;20316;-73
2020/12/30 20:00:58;;;;;;;11.82;3.70;;;;;;;10.37;69.25;94121.75;10527290;28;20398;-73
2020/12/30 20:06:00;;;;;;;14.80;3.23;;;;;;;10.40;69.75;94121.16;10529944;28;20040;-73
2020/12/30 20:11:00;;;;;;;13.85;3.63;;;;;;;10.46;71.66;94115.72;10500053;28;20472;-73
2020/12/30 20:16:04;;;;;;;12.27;3.65;;;;;;;10.57;66.86;94103.78;10470729;28;20024;-73
2020/12/30 20:21:06;;;;;;;23.55;3.53;;;;;;;10.65;64.28;94103.13;10503923;28;20064;-74
2020/12/30 20:26:06;;;;;;;17.90;4.10;;;;;;;10.71;68.04;94101.97;10469197;28;20055;-74
2020/12/30 20:31:06;;;;;;;19.57;5.10;;;;;;;10.46;70.54;94105.78;10470394;28;20553;-74
2020/12/30 20:36:11;;;;;;;12.10;4.33;;;;;;;10.27;71.79;94093.09;10487612;28;20266;-74
2020/12/30 20:41:12;;;;;;;17.50;3.95;;;;;;;10.39;69.01;94094.59;10487860;28;20025;-73
2020/12/30 20:46:14;;;;;;;19.90;4.60;;;;;;;10.26;73.28;94086.09;10487870;28;20025;-73
2020/12/30 20:51:14;;;;;;;22.10;3.72;;;;;;;10.25;68.15;94103.28;10497612;28;20035;-73
2020/12/30 20:56:16;;;;;;;16.00;4.07;;;;;;;9.98;76.68;94121.88;10503102;28;20509;-73
2020/12/30 21:01:16;;;;;;;12.68;4.75;;;;;;;9.99;76.86;94118.91;10506040;28;20028;-72
2020/12/30 21:06:16;;;;;;;25.98;4.78;;;;;;;9.97;77.64;94106.84;10517849;28;20028;-73
2020/12/30 21:11:17;;;;;;;27.57;5.13;;;;;;;9.93;77.48;94120.03;10528693;28;20028;-74
2020/12/30 21:16:17;;;;;;;14.03;4.00;;;;;;;10.00;77.51;94112.44;10528780;28;20278;-73
2020/12/30 21:21:18;;;;;;;21.05;5.05;;;;;;;10.06;76.34;94119.38;10528367;28;20178;-73
2020/12/30 21:26:18;;;;;;;18.73;5.77;;;;;;;10.12;75.78;94121.97;10528776;28;20218;-73
2020/12/30 21:31:19;;;;;;;21.07;5.80;;;;;;;10.21;74.30;94123.78;10529101;28;20036;-73
2020/12/30 21:36:19;;;;;;;13.13;4.55;;;;;;;10.27;74.06;94128.00;10530270;28;21012;-74
2020/12/30 21:41:19;;;;;;;16.83;4.70;;;;;;;10.25;75.11;94127.47;10536189;28;20039;-74
2020/12/30 21:46:20;;;;;;;12.63;6.18;;;;;;;10.09;77.89;94107.25;10536417;28;20282;-74
2020/12/30 21:51:20;;;;;;;16.35;4.78;;;;;;;9.74;85.79;94114.59;10534305;28;20028;-73
2020/12/30 21:56:21;;;;;;;21.40;4.73;;;;;;;9.44;91.26;94100.34;10530410;28;20023;-73
2020/12/30 22:01:21;;;;;;;18.17;5.00;;;;;;;9.14;94.88;94120.16;10516744;28;20271;-73
2020/12/30 22:06:22;;;;;;;12.23;5.23;;;;;;;9.10;94.98;94109.22;10507284;28;20035;-74
2020/12/30 22:11:22;;;;;;;27.93;5.17;;;;;;;9.05;97.05;94112.72;10475010;28;20025;-73
2020/12/30 22:16:27;;;;;;;27.10;5.93;;;;;;;9.04;98.00;94127.22;10475661;28;20455;-72
2020/12/30 22:21:27;;;;;;;19.58;4.97;;;;;;;9.08;99.14;94127.44;10492767;28;20080;-72
2020/12/30 22:26:27;;;;;;;15.60;3.97;;;;;;;9.05;100.00;94133.34;10492695;28;20136;-73
2020/12/30 22:31:28;;;;;;;16.87;4.93;;;;;;;9.01;100.00;94130.41;10509940;28;20034;-72
2020/12/30 22:36:28;;;;;;;20.13;4.78;;;;;;;9.03;100.00;94120.25;10513976;28;20020;-73
2020/12/30 22:41:28;;;;;;;20.43;4.10;;;;;;;8.76;100.00;94127.91;10512052;28;20028;-73
2020/12/30 22:46:29;;;;;;;20.00;3.53;;;;;;;8.69;100.00;94110.28;10498011;28;20036;-73
2020/12/30 22:51:29;;;;;;;27.50;3.87;;;;;;;8.64;100.00;94118.31;10517365;28;20327;-73
2020/12/30 22:56:29;;;;;;;13.50;3.73;;;;;;;8.51;100.00;94129.63;10533696;28;20023;-73
2020/12/30 23:01:30;;;;;;;13.60;5.13;;;;;;;8.53;100.00;94124.81;10533604;28;20387;-73
2020/12/30 23:06:30;;;;;;;9.00;3.57;;;;;;;8.67;100.00;94108.94;10533034;28;20343;-73
2020/12/30 23:11:30;;;;;;;18.07;5.90;;;;;;;8.66;100.00;94100.09;10533071;28;20281;-73
2020/12/30 23:16:31;;;;;;;23.17;7.57;;;;;;;8.77;100.00;94100.03;10532918;28;20028;-73